createdAt,value
2019-02-21T00:02:22.677Z,100.00
2019-02-21T00:04:48.988Z,100.00
2019-02-21T00:07:15.288Z,100.00
2019-02-21T00:09:41.607Z,100.00
2019-02-21T00:12:07.908Z,100.00
2019-02-21T00:14:34.211Z,100.00
2019-02-21T00:17:00.516Z,100.00
2019-02-21T00:19:26.824Z,100.00
2019-02-21T00:21:53.133Z,100.00
2019-02-21T00:24:19.466Z,100.00
2019-02-21T00:26:45.773Z,100.00
2019-02-21T00:29:12.075Z,100.00
2019-02-21T00:31:40.131Z,100.00
2019-02-21T00:34:05.741Z,100.00
2019-02-21T00:36:32.047Z,100.00
2019-02-21T00:38:58.427Z,100.00
2019-02-21T00:41:24.736Z,100.00
2019-02-21T00:43:51.049Z,100.00
2019-02-21T00:46:17.377Z,100.00
2019-02-21T00:48:43.682Z,100.00
2019-02-21T00:51:09.988Z,100.00
2019-02-21T00:53:36.292Z,100.00
2019-02-21T00:56:02.608Z,100.00
2019-02-21T00:58:28.914Z,100.00
2019-02-21T01:00:55.227Z,100.00
2019-02-21T01:03:21.539Z,100.00
2019-02-21T01:05:47.845Z,100.00
2019-02-21T01:08:14.154Z,100.00
2019-02-21T01:10:40.467Z,100.00
2019-02-21T01:13:06.812Z,100.00
2019-02-21T01:15:33.085Z,100.00
2019-02-21T01:17:59.397Z,100.00
2019-02-21T01:20:25.704Z,100.00
2019-02-21T01:22:52.013Z,100.00
2019-02-21T01:25:18.316Z,100.00
2019-02-21T01:27:44.628Z,100.00
2019-02-21T01:30:10.944Z,100.00
2019-02-21T01:32:37.260Z,100.00
2019-02-21T01:35:03.566Z,100.00
2019-02-21T01:37:29.878Z,100.00
2019-02-21T01:39:56.185Z,100.00
2019-02-21T01:42:22.492Z,100.00
2019-02-21T01:44:48.801Z,100.00
2019-02-21T01:47:15.108Z,100.00
2019-02-21T01:49:41.428Z,100.00
2019-02-21T01:52:07.739Z,100.00
2019-02-21T01:54:34.043Z,100.00
2019-02-21T01:57:00.352Z,100.00
2019-02-21T01:59:26.660Z,100.00
2019-02-21T02:01:52.969Z,100.00
2019-02-21T02:04:19.277Z,100.00
2019-02-21T02:06:45.587Z,100.00
2019-02-21T02:09:11.922Z,100.00
2019-02-21T02:11:38.220Z,100.00
2019-02-21T02:14:04.531Z,100.00
2019-02-21T02:16:30.841Z,100.00
2019-02-21T02:18:57.143Z,100.00
2019-02-21T02:21:23.455Z,100.00
2019-02-21T02:23:49.763Z,100.00
2019-02-21T02:26:16.097Z,100.00
2019-02-21T02:28:42.408Z,100.00
2019-02-21T02:31:21.541Z,100.00
2019-02-21T02:33:35.029Z,100.00
2019-02-21T02:36:01.335Z,100.00
2019-02-21T02:38:27.645Z,100.00
2019-02-21T02:40:53.960Z,100.00
2019-02-21T02:43:20.284Z,100.00
2019-02-21T02:45:46.585Z,100.00
2019-02-21T02:48:12.909Z,100.00
2019-02-21T02:50:39.203Z,100.00
2019-02-21T02:53:05.512Z,100.00
2019-02-21T02:55:31.826Z,100.00
2019-02-21T02:57:58.135Z,100.00
2019-02-21T03:00:24.446Z,100.00
2019-02-21T03:02:50.778Z,100.00
2019-02-21T03:05:17.129Z,100.00
2019-02-21T03:07:43.389Z,100.00
2019-02-21T03:10:09.699Z,100.00
2019-02-21T03:12:36.009Z,100.00
2019-02-21T03:15:02.340Z,100.00
2019-02-21T03:17:28.626Z,100.00
2019-02-21T03:19:54.937Z,100.00
2019-02-21T03:22:21.246Z,100.00
2019-02-21T03:24:47.561Z,100.00
2019-02-21T03:27:13.868Z,100.00
2019-02-21T03:29:40.198Z,100.00
2019-02-21T03:32:06.535Z,100.00
2019-02-21T03:34:32.840Z,100.00
2019-02-21T03:36:59.145Z,100.00
2019-02-21T03:39:25.484Z,100.00
2019-02-21T03:41:51.761Z,100.00
2019-02-21T03:44:18.072Z,100.00
2019-02-21T03:46:44.380Z,100.00
2019-02-21T03:49:10.687Z,100.00
2019-02-21T03:51:36.991Z,100.00
2019-02-21T03:54:03.315Z,100.00
2019-02-21T03:56:29.620Z,100.00
2019-02-21T03:58:55.934Z,100.00
2019-02-21T04:01:22.248Z,100.00
2019-02-21T04:03:48.583Z,100.00
2019-02-21T04:06:14.897Z,100.00
2019-02-21T04:08:41.214Z,100.00
2019-02-21T04:11:07.525Z,100.00
2019-02-21T04:13:33.827Z,100.00
2019-02-21T04:16:00.139Z,100.00
2019-02-21T04:18:26.446Z,100.00
2019-02-21T04:20:52.753Z,100.00
2019-02-21T04:23:19.056Z,100.00
2019-02-21T04:25:45.365Z,100.00
2019-02-21T04:28:11.665Z,100.00
2019-02-21T04:30:37.980Z,100.00
2019-02-21T04:33:04.285Z,100.00
2019-02-21T04:35:30.592Z,100.00
2019-02-21T04:37:56.940Z,100.00
2019-02-21T04:40:23.246Z,100.00
2019-02-21T04:42:49.554Z,100.00
2019-02-21T04:45:15.856Z,100.00
2019-02-21T04:47:42.165Z,100.00
2019-02-21T04:50:08.472Z,100.00
2019-02-21T04:52:34.793Z,100.00
2019-02-21T04:55:01.112Z,100.00
2019-02-21T04:57:27.430Z,100.00
2019-02-21T04:59:53.735Z,100.00
2019-02-21T05:02:28.498Z,100.00
2019-02-21T05:04:46.355Z,100.00
2019-02-21T05:07:12.660Z,100.00
2019-02-21T05:09:38.972Z,100.00
2019-02-21T05:12:05.275Z,100.00
2019-02-21T05:14:31.587Z,100.00
2019-02-21T05:17:00.528Z,100.00
2019-02-21T05:19:24.209Z,100.00
2019-02-21T05:21:50.518Z,100.00
2019-02-21T05:24:16.825Z,100.00
2019-02-21T05:26:43.142Z,100.00
2019-02-21T05:29:09.455Z,100.00
2019-02-21T05:31:35.763Z,100.00
2019-02-21T05:34:02.072Z,100.00
2019-02-21T05:36:28.382Z,100.00
2019-02-21T05:38:54.713Z,100.00
2019-02-21T05:41:21.029Z,100.00
2019-02-21T05:43:47.339Z,100.00
2019-02-21T05:46:13.645Z,100.00
2019-02-21T05:48:40.290Z,100.00
2019-02-21T05:51:06.257Z,100.00
2019-02-21T05:53:32.565Z,100.00
2019-02-21T05:55:58.872Z,100.00
2019-02-21T05:58:25.187Z,100.00
2019-02-21T06:00:51.493Z,100.00
2019-02-21T06:03:17.812Z,100.00
2019-02-21T06:05:44.126Z,100.00
2019-02-21T06:08:10.435Z,100.00
2019-02-21T06:10:36.747Z,100.00
2019-02-21T06:13:03.062Z,100.00
2019-02-21T06:15:29.367Z,100.00
2019-02-21T06:17:55.679Z,100.00
2019-02-21T06:20:21.996Z,100.00
2019-02-21T06:22:48.303Z,100.00
2019-02-21T06:25:14.617Z,100.00
2019-02-21T06:27:40.929Z,100.00
2019-02-21T06:30:07.236Z,100.00
2019-02-21T06:32:33.549Z,100.00
2019-02-21T06:35:02.404Z,100.00
2019-02-21T06:37:26.157Z,100.00
2019-02-21T06:39:52.495Z,100.00
2019-02-21T06:42:18.787Z,100.00
2019-02-21T06:44:45.104Z,100.00
2019-02-21T06:47:11.416Z,100.00
2019-02-21T06:49:37.725Z,100.00
2019-02-21T06:52:04.054Z,100.00
2019-02-21T06:54:30.353Z,100.00
2019-02-21T06:56:56.659Z,100.00
2019-02-21T06:59:23.735Z,100.00
2019-02-21T07:01:49.278Z,100.00
2019-02-21T07:04:15.587Z,100.00
2019-02-21T07:06:41.893Z,100.00
2019-02-21T07:09:08.199Z,100.00
2019-02-21T07:11:34.509Z,100.00
2019-02-21T07:14:00.829Z,100.00
2019-02-21T07:16:27.136Z,100.00
2019-02-21T07:18:53.450Z,100.00
2019-02-21T07:21:19.761Z,100.00
2019-02-21T07:23:46.067Z,100.00
2019-02-21T07:26:12.368Z,100.00
2019-02-21T07:28:40.878Z,100.00
2019-02-21T07:31:05.009Z,100.00
2019-02-21T07:33:31.338Z,100.00
2019-02-21T07:35:57.643Z,100.00
2019-02-21T07:38:23.970Z,100.00
2019-02-21T07:40:50.269Z,100.00
2019-02-21T07:43:16.593Z,100.00
2019-02-21T07:45:42.904Z,100.00
2019-02-21T07:48:09.209Z,100.00
2019-02-21T07:50:35.521Z,100.00
2019-02-21T07:53:02.830Z,100.00
2019-02-21T07:55:28.280Z,100.00
2019-02-21T07:57:54.585Z,100.00
2019-02-21T08:00:20.897Z,100.00
2019-02-21T08:02:47.227Z,100.00
2019-02-21T08:05:13.537Z,100.00
2019-02-21T08:07:39.842Z,100.00
2019-02-21T08:10:06.159Z,100.00
2019-02-21T08:12:32.505Z,100.00
2019-02-21T08:14:58.823Z,100.00
2019-02-21T08:17:27.767Z,100.00
2019-02-21T08:19:51.620Z,100.00
2019-02-21T08:22:18.043Z,100.00
2019-02-21T08:24:44.367Z,100.00
2019-02-21T08:27:10.679Z,100.00
2019-02-21T08:29:36.990Z,100.00
2019-02-21T08:32:03.310Z,100.00
2019-02-21T08:34:29.679Z,100.00
2019-02-21T08:36:55.992Z,100.00
2019-02-21T08:39:22.339Z,100.00
2019-02-21T08:41:48.651Z,100.00
2019-02-21T08:44:14.965Z,100.00
2019-02-21T08:46:41.275Z,100.00
2019-02-21T08:49:07.584Z,100.00
2019-02-21T08:51:33.897Z,100.00
2019-02-21T08:54:00.210Z,100.00
2019-02-21T08:56:26.524Z,100.00
2019-02-21T08:58:52.866Z,100.00
2019-02-21T09:01:19.255Z,100.00
2019-02-21T09:03:45.481Z,100.00
2019-02-21T09:06:13.000Z,100.00
2019-02-21T09:08:38.100Z,100.00
2019-02-21T09:11:04.454Z,100.00
2019-02-21T09:13:30.761Z,100.00
2019-02-21T09:15:57.069Z,100.00
2019-02-21T09:18:23.383Z,100.00
2019-02-21T09:20:49.754Z,100.00
2019-02-21T09:23:16.030Z,100.00
2019-02-21T09:25:42.327Z,100.00
2019-02-21T09:28:08.642Z,100.00
2019-02-21T09:30:34.954Z,100.00
2019-02-21T09:33:01.263Z,100.00
2019-02-21T09:35:27.626Z,100.00
2019-02-21T09:37:53.939Z,100.00
2019-02-21T09:40:20.248Z,100.00
2019-02-21T09:42:46.587Z,100.00
2019-02-21T09:45:14.827Z,100.00
2019-02-21T09:47:39.200Z,100.00
2019-02-21T09:50:05.505Z,100.00
2019-02-21T09:52:31.842Z,75.11
2019-02-21T09:54:58.149Z,65.63
2019-02-21T09:57:24.477Z,55.54
2019-02-21T09:59:50.786Z,53.22
2019-02-21T10:02:17.113Z,51.33
2019-02-21T10:04:43.416Z,48.97
2019-02-21T10:07:09.737Z,48.07
2019-02-21T10:09:36.136Z,46.83
2019-02-21T10:12:03.300Z,45.39
2019-02-21T10:14:28.656Z,44.55
2019-02-21T10:16:54.970Z,43.58
2019-02-21T10:19:21.277Z,43.26
2019-02-21T10:21:47.603Z,41.94
2019-02-21T10:24:13.907Z,40.04
2019-02-21T10:26:40.219Z,41.10
2019-02-21T10:29:06.523Z,40.26
2019-02-21T10:31:32.847Z,38.08
2019-02-21T10:33:59.223Z,37.96
2019-02-21T10:36:25.459Z,36.86
2019-02-21T10:38:51.767Z,36.52
2019-02-21T10:41:18.079Z,36.23
2019-02-21T10:43:44.398Z,36.57
2019-02-21T10:46:10.709Z,37.25
2019-02-21T10:48:37.019Z,36.63
2019-02-21T10:51:03.332Z,35.50
2019-02-21T10:53:29.643Z,34.30
2019-02-21T10:55:55.944Z,34.54
2019-02-21T10:58:22.259Z,35.39
2019-02-21T11:00:48.574Z,34.05
2019-02-21T11:03:14.880Z,33.95
2019-02-21T11:05:41.187Z,33.93
2019-02-21T11:08:07.497Z,33.10
2019-02-21T11:10:33.804Z,32.78
2019-02-21T11:13:00.115Z,33.07
2019-02-21T11:15:26.427Z,32.24
2019-02-21T11:17:52.743Z,31.61
2019-02-21T11:20:19.059Z,32.86
2019-02-21T11:22:45.370Z,33.19
2019-02-21T11:25:11.677Z,33.26
2019-02-21T11:27:37.993Z,33.70
2019-02-21T11:30:04.300Z,32.34
2019-02-21T11:32:30.624Z,31.70
2019-02-21T11:35:05.763Z,32.78
2019-02-21T11:37:23.257Z,31.97
2019-02-21T11:39:49.568Z,31.59
2019-02-21T11:42:15.872Z,32.00
2019-02-21T11:44:42.192Z,31.50
2019-02-21T11:47:08.508Z,30.92
2019-02-21T11:49:34.825Z,31.23
2019-02-21T11:52:09.786Z,31.11
2019-02-21T11:54:27.541Z,31.13
2019-02-21T11:56:53.757Z,31.02
2019-02-21T11:59:20.122Z,31.05
2019-02-21T12:01:46.371Z,31.34
2019-02-21T12:04:12.685Z,31.35
2019-02-21T12:06:38.999Z,31.29
2019-02-21T12:09:05.310Z,31.11
2019-02-21T12:11:31.609Z,30.61
2019-02-21T12:13:57.921Z,30.84
2019-02-21T12:16:24.228Z,31.09
2019-02-21T12:18:50.551Z,30.95
2019-02-21T12:21:16.856Z,30.43
2019-02-21T12:23:43.164Z,30.69
2019-02-21T12:26:09.474Z,30.39
2019-02-21T12:28:35.785Z,30.68
2019-02-21T12:31:02.187Z,30.82
2019-02-21T12:33:28.411Z,30.32
2019-02-21T12:35:54.712Z,30.55
2019-02-21T12:38:21.047Z,30.42
2019-02-21T12:40:47.354Z,30.58
2019-02-21T12:43:13.665Z,30.68
2019-02-21T12:45:39.979Z,30.90
2019-02-21T12:48:06.285Z,30.72
2019-02-21T12:50:43.649Z,30.28
2019-02-21T12:52:58.899Z,30.26
2019-02-21T12:55:29.245Z,30.29
2019-02-21T12:57:51.517Z,30.70
2019-02-21T13:00:17.827Z,30.94
2019-02-21T13:02:44.139Z,31.07
2019-02-21T13:05:10.450Z,31.11
2019-02-21T13:07:36.767Z,30.67
2019-02-21T13:10:03.081Z,30.31
2019-02-21T13:12:29.404Z,30.52
2019-02-21T13:14:55.714Z,30.08
2019-02-21T13:17:22.022Z,30.36
2019-02-21T13:19:48.341Z,30.35
2019-02-21T13:22:14.648Z,30.38
2019-02-21T13:24:40.956Z,30.38
2019-02-21T13:27:07.269Z,30.38
2019-02-21T13:29:33.578Z,30.37
2019-02-21T13:31:59.888Z,30.38
2019-02-21T13:34:26.216Z,30.24
2019-02-21T13:36:52.512Z,30.05
2019-02-21T13:39:18.828Z,30.31
2019-02-21T13:41:45.132Z,30.69
2019-02-21T13:44:11.445Z,30.33
2019-02-21T13:46:40.863Z,30.53
2019-02-21T13:49:04.055Z,30.61
2019-02-21T13:51:30.365Z,30.56
2019-02-21T13:53:56.689Z,30.68
2019-02-21T13:56:22.998Z,31.02
2019-02-21T13:58:49.323Z,30.86
2019-02-21T14:01:15.621Z,30.75
2019-02-21T14:03:41.936Z,30.61
2019-02-21T14:06:08.254Z,30.59
2019-02-21T14:08:34.563Z,30.77
2019-02-21T14:11:00.878Z,30.76
2019-02-21T14:13:27.190Z,30.87
2019-02-21T14:15:53.492Z,30.76
2019-02-21T14:18:19.805Z,31.18
2019-02-21T14:20:46.121Z,31.14
2019-02-21T14:23:12.427Z,31.28
2019-02-21T14:25:41.089Z,31.58
2019-02-21T14:28:05.040Z,31.54
2019-02-21T14:30:31.353Z,31.56
2019-02-21T14:32:57.996Z,31.43
2019-02-21T14:35:24.300Z,31.89
2019-02-21T14:37:50.609Z,31.79
2019-02-21T14:40:16.921Z,31.39
2019-02-21T14:42:43.224Z,31.35
2019-02-21T14:45:12.177Z,31.18
2019-02-21T14:47:35.845Z,30.82
2019-02-21T14:50:04.565Z,31.05
2019-02-21T14:52:28.463Z,31.53
2019-02-21T14:54:54.772Z,31.85
2019-02-21T14:57:21.082Z,31.95
2019-02-21T14:59:47.393Z,34.34
2019-02-21T15:02:13.697Z,49.60
2019-02-21T15:04:40.008Z,52.61
2019-02-21T15:07:06.684Z,52.91
2019-02-21T15:09:32.650Z,52.88
2019-02-21T15:11:58.957Z,52.83
2019-02-21T15:14:25.261Z,52.82
2019-02-21T15:16:51.574Z,52.92
2019-02-21T15:19:17.881Z,53.07
2019-02-21T15:21:44.209Z,53.30
2019-02-21T15:24:12.993Z,53.49
2019-02-21T15:26:36.837Z,53.70
2019-02-21T15:29:03.154Z,53.91
2019-02-21T15:31:29.551Z,54.25
2019-02-21T15:33:55.856Z,54.61
2019-02-21T15:36:22.166Z,54.93
2019-02-21T15:38:48.476Z,55.31
2019-02-21T15:41:14.785Z,55.67
2019-02-21T15:43:41.094Z,56.05
2019-02-21T15:46:07.578Z,56.50
2019-02-21T15:48:33.718Z,61.30
2019-02-21T15:51:00.023Z,63.34
2019-02-21T15:53:26.328Z,63.91
2019-02-21T15:55:52.643Z,64.22
2019-02-21T15:58:18.948Z,64.88
2019-02-21T16:00:45.259Z,65.21
2019-02-21T16:03:11.565Z,65.53
2019-02-21T16:05:37.881Z,66.00
2019-02-21T16:08:04.190Z,66.28
2019-02-21T16:10:30.524Z,66.56
2019-02-21T16:12:57.115Z,66.81
2019-02-21T16:15:23.172Z,67.16
2019-02-21T16:17:49.477Z,67.58
2019-02-21T16:20:15.800Z,68.05
2019-02-21T16:22:42.086Z,68.46
2019-02-21T16:25:08.395Z,68.81
2019-02-21T16:27:34.701Z,69.28
2019-02-21T16:30:01.008Z,69.48
2019-02-21T16:32:27.319Z,69.92
2019-02-21T16:34:53.662Z,70.45
2019-02-21T16:37:19.954Z,70.85
2019-02-21T16:39:46.260Z,71.35
2019-02-21T16:42:12.572Z,74.38
2019-02-21T16:44:38.885Z,75.60
2019-02-21T16:47:05.818Z,75.51
2019-02-21T16:49:31.499Z,75.52
2019-02-21T16:51:57.809Z,75.99
2019-02-21T16:54:24.112Z,76.46
2019-02-21T16:56:50.416Z,76.76
2019-02-21T16:59:16.724Z,77.13
2019-02-21T17:01:43.045Z,77.52
2019-02-21T17:04:09.356Z,77.85
2019-02-21T17:06:35.666Z,78.21
2019-02-21T17:09:01.971Z,78.47
2019-02-21T17:11:28.290Z,78.82
2019-02-21T17:13:54.592Z,79.00
2019-02-21T17:16:20.903Z,79.38
2019-02-21T17:18:47.210Z,79.56
2019-02-21T17:21:13.513Z,79.78
2019-02-21T17:23:39.827Z,79.95
2019-02-21T17:26:06.130Z,80.19
2019-02-21T17:28:32.430Z,80.35
2019-02-21T17:30:58.734Z,80.58
2019-02-21T17:33:25.052Z,81.02
2019-02-21T17:35:51.356Z,81.17
2019-02-21T17:38:17.665Z,81.32
2019-02-21T17:40:43.972Z,81.52
2019-02-21T17:43:10.285Z,81.66
2019-02-21T17:45:36.594Z,81.82
2019-02-21T17:48:02.905Z,82.11
2019-02-21T17:50:29.218Z,82.15
2019-02-21T17:52:55.546Z,82.16
2019-02-21T17:55:21.847Z,82.46
2019-02-21T17:57:48.160Z,82.64
2019-02-21T18:00:17.051Z,82.73
2019-02-21T18:02:40.790Z,82.88
2019-02-21T18:05:07.079Z,83.02
2019-02-21T18:07:36.413Z,83.15
2019-02-21T18:09:59.689Z,83.25
2019-02-21T18:12:25.994Z,83.16
2019-02-21T18:14:52.300Z,83.38
2019-02-21T18:17:18.606Z,83.49
2019-02-21T18:19:44.910Z,83.61
2019-02-21T18:22:11.258Z,83.79
2019-02-21T18:24:37.570Z,84.29
2019-02-21T18:27:03.902Z,84.57
2019-02-21T18:29:30.212Z,84.73
2019-02-21T18:31:56.516Z,84.99
2019-02-21T18:34:22.815Z,85.15
2019-02-21T18:36:49.119Z,85.42
2019-02-21T18:39:15.443Z,85.68
2019-02-21T18:41:41.748Z,85.85
2019-02-21T18:44:08.089Z,86.11
2019-02-21T18:46:34.397Z,86.31
2019-02-21T18:49:00.700Z,86.49
2019-02-21T18:51:27.333Z,86.61
2019-02-21T18:53:53.646Z,86.86
2019-02-21T18:56:19.955Z,87.09
2019-02-21T18:58:46.260Z,87.36
2019-02-21T19:01:12.571Z,87.53
2019-02-21T19:03:38.882Z,87.66
2019-02-21T19:06:05.227Z,87.73
2019-02-21T19:08:31.537Z,87.80
2019-02-21T19:10:57.843Z,87.91
2019-02-21T19:13:24.152Z,88.25
2019-02-21T19:15:50.456Z,88.47
2019-02-21T19:18:16.777Z,88.62
2019-02-21T19:20:43.083Z,88.86
2019-02-21T19:23:09.396Z,88.90
2019-02-21T19:25:35.738Z,89.04
2019-02-21T19:28:02.050Z,89.31
2019-02-21T19:30:28.441Z,89.40
2019-02-21T19:32:54.679Z,89.50
2019-02-21T19:35:20.984Z,89.55
2019-02-21T19:37:47.290Z,89.68
2019-02-21T19:40:13.614Z,89.85
2019-02-21T19:42:39.968Z,89.93
2019-02-21T19:45:06.279Z,89.90
2019-02-21T19:47:32.584Z,90.12
2019-02-21T19:49:58.889Z,91.75
2019-02-21T19:52:25.191Z,93.61
2019-02-21T19:54:51.509Z,93.30
2019-02-21T19:57:17.852Z,93.20
2019-02-21T19:59:44.284Z,93.45
2019-02-21T20:02:10.630Z,93.51
2019-02-21T20:04:36.939Z,93.57
2019-02-21T20:07:03.249Z,93.45
2019-02-21T20:09:29.558Z,93.38
2019-02-21T20:11:55.871Z,93.52
2019-02-21T20:14:22.188Z,93.77
2019-02-21T20:16:48.539Z,93.72
2019-02-21T20:19:14.847Z,93.80
2019-02-21T20:21:41.152Z,93.90
2019-02-21T20:24:07.455Z,94.14
2019-02-21T20:26:33.771Z,94.08
2019-02-21T20:29:00.080Z,94.21
2019-02-21T20:31:26.384Z,94.24
2019-02-21T20:33:52.692Z,94.22
2019-02-21T20:36:18.995Z,94.34
2019-02-21T20:38:45.298Z,94.27
2019-02-21T20:41:11.615Z,94.43
2019-02-21T20:43:37.925Z,94.52
2019-02-21T20:46:04.232Z,94.41
2019-02-21T20:48:30.725Z,94.51
2019-02-21T20:50:57.426Z,94.50
2019-02-21T20:53:23.174Z,94.68
2019-02-21T20:55:49.483Z,94.65
2019-02-21T20:58:15.788Z,94.80
2019-02-21T21:00:42.118Z,94.78
2019-02-21T21:03:08.421Z,94.88
2019-02-21T21:05:34.728Z,95.04
2019-02-21T21:08:01.036Z,95.34
2019-02-21T21:10:27.345Z,95.61
2019-02-21T21:12:53.656Z,95.70
2019-02-21T21:15:19.960Z,95.55
2019-02-21T21:17:46.273Z,95.53
2019-02-21T21:20:16.462Z,95.63
2019-02-21T21:22:38.884Z,95.74
2019-02-21T21:25:05.189Z,95.88
2019-02-21T21:27:31.495Z,96.22
2019-02-21T21:29:57.800Z,96.42
2019-02-21T21:32:24.111Z,96.41
2019-02-21T21:34:50.423Z,96.52
2019-02-21T21:37:16.734Z,96.59
2019-02-21T21:39:43.039Z,96.78
2019-02-21T21:42:09.356Z,96.79
2019-02-21T21:44:35.660Z,96.65
2019-02-21T21:47:01.964Z,96.74
2019-02-21T21:49:28.277Z,96.86
2019-02-21T21:51:54.579Z,96.82
2019-02-21T21:54:20.886Z,96.87
2019-02-21T21:56:47.192Z,97.00
2019-02-21T21:59:13.499Z,97.29
2019-02-21T22:01:39.817Z,97.28
2019-02-21T22:04:06.121Z,97.15
2019-02-21T22:06:32.429Z,97.12
2019-02-21T22:09:04.689Z,97.09
2019-02-21T22:11:25.075Z,97.11
2019-02-21T22:13:51.395Z,97.03
2019-02-21T22:16:17.734Z,96.99
2019-02-21T22:18:44.053Z,97.09
2019-02-21T22:21:10.386Z,97.16
2019-02-21T22:23:36.745Z,97.08
2019-02-21T22:26:03.040Z,97.08
2019-02-21T22:28:29.372Z,96.74
2019-02-21T22:30:57.944Z,96.38
2019-02-21T22:33:22.026Z,96.17
2019-02-21T22:35:48.352Z,95.98
2019-02-21T22:38:14.695Z,95.71
2019-02-21T22:40:41.013Z,95.47
2019-02-21T22:43:07.335Z,95.34
2019-02-21T22:45:33.665Z,95.05
2019-02-21T22:47:59.986Z,94.72
2019-02-21T22:50:26.944Z,94.59
2019-02-21T22:52:52.640Z,94.50
2019-02-21T22:55:18.969Z,94.58
2019-02-21T22:57:45.291Z,94.42
2019-02-21T23:00:11.615Z,94.52
2019-02-21T23:02:37.944Z,94.42
2019-02-21T23:05:04.277Z,94.51
2019-02-21T23:07:30.600Z,94.39
2019-02-21T23:09:56.917Z,94.47
2019-02-21T23:12:23.238Z,94.43
2019-02-21T23:14:49.563Z,94.65
2019-02-21T23:17:15.887Z,94.55
2019-02-21T23:19:42.195Z,94.89
2019-02-21T23:22:08.499Z,94.96
2019-02-21T23:24:34.818Z,94.97
2019-02-21T23:27:01.130Z,94.96
2019-02-21T23:29:27.436Z,94.85
2019-02-21T23:31:53.745Z,94.82
2019-02-21T23:34:20.072Z,94.58
2019-02-21T23:36:46.383Z,94.36
2019-02-21T23:39:12.691Z,94.32
2019-02-21T23:41:38.998Z,94.08
2019-02-21T23:44:05.312Z,93.85
2019-02-21T23:46:31.623Z,93.87
2019-02-21T23:48:57.928Z,93.87
2019-02-21T23:51:24.273Z,93.78
2019-02-21T23:53:50.584Z,93.82
2019-02-21T23:56:16.892Z,93.68
2019-02-21T23:58:43.206Z,93.28
